Time;durP1;ratioP1;P1;durP2;ratioP2;P2;SDS_P1;SDS_P2;PMS_P1;PMS_P2;Temp;Humidity;BMP_temperature;BMP_pressure;BME280_temperature;BME280_humidity;BME280_pressure;Samples;Min_cycle;Max_cycle;Signal;HPM_P1;HPM_P2
2021/10/08 00:00:54;;;;;;;;;;;;;;;8.50;84.51;97519.81;5073187;28;19959;-79
2021/10/08 00:03:20;;;;;;;;;;;;;;;8.50;84.64;97520.63;5073180;28;19971;-79
2021/10/08 00:05:46;;;;;;;;;;;;;;;8.53;84.62;97522.06;5073015;28;19968;-79
2021/10/08 00:08:12;;;;;;;;;;;;;;;8.53;84.69;97520.25;5073017;28;19959;-79
2021/10/08 00:10:38;;;;;;;;;;;;;;;8.56;84.93;97519.09;5073220;28;20025;-79
2021/10/08 00:13:03;;;;;;;;;;;;;;;8.59;84.82;97510.06;5073047;28;20012;-79
2021/10/08 00:15:29;;;;;;;;;;;;;;;8.59;84.69;97518.75;5073196;28;19963;-79
2021/10/08 00:17:55;;;;;;;;;;;;;;;8.60;84.58;97517.75;5073152;28;20066;-78
2021/10/08 00:20:21;;;;;;;;;;;;;;;8.59;84.16;97513.53;5073104;28;19963;-78
2021/10/08 00:22:47;;;;;;;;;;;;;;;8.59;84.21;97513.53;5073115;28;20463;-79
2021/10/08 00:25:13;;;;;;;;;;;;;;;8.59;84.18;97516.13;5072793;28;19961;-79
2021/10/08 00:27:39;;;;;;;;;;;;;;;8.57;83.91;97517.28;5073045;28;19962;-79
2021/10/08 00:30:05;;;;;;;;;;;;;;;8.54;84.20;97516.66;5073191;28;19962;-79
2021/10/08 00:32:31;;;;;;;;;;;;;;;8.53;84.35;97516.84;5076637;28;19963;-79
2021/10/08 00:34:57;;;;;;;;;;;;;;;8.51;84.36;97519.63;5076244;28;19959;-79
2021/10/08 00:37:23;;;;;;;;;;;;;;;8.49;84.42;97515.56;5076280;28;20546;-79
2021/10/08 00:39:48;;;;;;;;;;;;;;;8.48;84.43;97512.16;5076313;28;19958;-79
2021/10/08 00:42:18;;;;;;;;;;;;;;;8.48;84.35;97519.16;5076203;28;19983;-78
2021/10/08 00:44:44;;;;;;;;;;;;;;;8.46;84.35;97510.69;5076344;28;20328;-79
2021/10/08 00:47:11;;;;;;;;;;;;;;;8.47;85.01;97505.28;5076393;28;19961;-79
2021/10/08 00:49:37;;;;;;;;;;;;;;;8.46;85.33;97506.28;5076186;28;19965;-79
2021/10/08 00:52:02;;;;;;;;;;;;;;;8.46;85.02;97508.06;5076068;28;19984;-79
2021/10/08 00:54:28;;;;;;;;;;;;;;;8.44;84.78;97495.19;5076135;28;19985;-79
2021/10/08 00:56:56;;;;;;;;;;;;;;;8.43;85.16;97495.38;5076150;28;19971;-79
2021/10/08 00:59:21;;;;;;;;;;;;;;;8.42;84.84;97501.56;5076202;28;19963;-79
2021/10/08 01:01:49;;;;;;;;;;;;;;;8.40;85.05;97498.28;5075904;28;19959;-79
2021/10/08 01:04:15;;;;;;;;;;;;;;;8.37;84.62;97490.81;5074580;28;19956;-79
2021/10/08 01:06:41;;;;;;;;;;;;;;;8.34;84.38;97490.19;5076490;28;19961;-79
2021/10/08 01:09:07;;;;;;;;;;;;;;;8.31;84.29;97495.75;5076406;28;19967;-80
2021/10/08 01:11:33;;;;;;;;;;;;;;;8.28;84.92;97492.69;5075884;28;20005;-80
2021/10/08 01:14:02;;;;;;;;;;;;;;;8.26;85.00;97487.66;5075680;28;19983;-80
2021/10/08 01:16:28;;;;;;;;;;;;;;;8.24;85.23;97491.44;5075516;28;19973;-80
2021/10/08 01:18:54;;;;;;;;;;;;;;;8.22;85.20;97478.53;5075726;28;20376;-79
2021/10/08 01:21:20;;;;;;;;;;;;;;;8.21;85.79;97481.31;5075693;28;20421;-79
2021/10/08 01:23:46;;;;;;;;;;;;;;;8.19;85.67;97480.69;5075423;28;20033;-79
2021/10/08 01:26:12;;;;;;;;;;;;;;;8.19;85.55;97489.34;5075801;28;19955;-80
2021/10/08 01:28:38;;;;;;;;;;;;;;;8.19;86.40;97489.34;5075950;28;19967;-79
2021/10/08 01:31:06;;;;;;;;;;;;;;;8.19;85.63;97484.13;5075659;28;20049;-79
2021/10/08 01:33:33;;;;;;;;;;;;;;;8.18;85.83;97473.84;5075332;28;19971;-80
2021/10/08 01:35:59;;;;;;;;;;;;;;;8.17;86.04;97480.03;5075588;28;19961;-80
2021/10/08 01:38:25;;;;;;;;;;;;;;;8.16;85.50;97474.00;5075043;28;19970;-78
2021/10/08 01:40:51;;;;;;;;;;;;;;;8.14;85.83;97473.38;5075092;28;19963;-80
2021/10/08 01:43:16;;;;;;;;;;;;;;;8.13;85.72;97472.56;5074890;28;20030;-80
2021/10/08 01:45:42;;;;;;;;;;;;;;;8.12;85.61;97468.31;5075155;28;19960;-80
2021/10/08 01:48:08;;;;;;;;;;;;;;;8.12;86.21;97472.75;5074910;28;19955;-80
2021/10/08 01:50:34;;;;;;;;;;;;;;;8.11;85.66;97471.13;5075787;28;19965;-80
2021/10/08 01:53:00;;;;;;;;;;;;;;;8.10;85.61;97474.72;5075393;28;19983;-80
2021/10/08 01:55:26;;;;;;;;;;;;;;;8.08;86.01;97469.69;5075024;28;19968;-80
2021/10/08 01:57:52;;;;;;;;;;;;;;;8.08;86.26;97471.47;5074746;28;20435;-80
2021/10/08 02:00:18;;;;;;;;;;;;;;;8.08;86.13;97468.84;5075189;28;19956;-80
2021/10/08 02:02:44;;;;;;;;;;;;;;;8.07;86.38;97469.84;5074682;28;20478;-80
2021/10/08 02:05:10;;;;;;;;;;;;;;;8.06;86.39;97469.06;5074906;28;20001;-80
2021/10/08 02:07:36;;;;;;;;;;;;;;;8.05;86.19;97470.03;5074849;28;19958;-80
2021/10/08 02:10:02;;;;;;;;;;;;;;;8.05;86.70;97477.06;5073550;28;19978;-80
2021/10/08 02:12:28;;;;;;;;;;;;;;;8.03;86.20;97465.97;5074385;28;19967;-80
2021/10/08 02:14:54;;;;;;;;;;;;;;;8.00;86.93;97463.69;5074741;28;19955;-80
2021/10/08 02:17:19;;;;;;;;;;;;;;;7.98;85.81;97468.28;5074226;28;20074;-80
2021/10/08 02:19:45;;;;;;;;;;;;;;;7.95;86.29;97469.44;5074213;28;20023;-79
2021/10/08 02:22:11;;;;;;;;;;;;;;;7.94;86.50;97467.84;5074560;28;19963;-79
2021/10/08 02:24:37;;;;;;;;;;;;;;;7.92;86.59;97467.22;5074170;28;19973;-79
2021/10/08 02:27:03;;;;;;;;;;;;;;;7.89;86.55;97462.31;5074539;28;20023;-79
2021/10/08 02:29:29;;;;;;;;;;;;;;;7.87;86.67;97459.91;5074043;28;20051;-80
2021/10/08 02:31:55;;;;;;;;;;;;;;;7.84;86.67;97455.00;5074446;28;20073;-80
2021/10/08 02:34:21;;;;;;;;;;;;;;;7.84;87.23;97457.63;5074287;28;20419;-80
2021/10/08 02:36:47;;;;;;;;;;;;;;;7.83;87.27;97463.84;5073904;28;19968;-80
2021/10/08 02:39:13;;;;;;;;;;;;;;;7.82;87.02;97466.63;5074140;28;19977;-80
2021/10/08 02:41:39;;;;;;;;;;;;;;;7.79;86.00;97464.34;5074287;28;19955;-80
2021/10/08 02:44:05;;;;;;;;;;;;;;;7.76;86.04;97469.94;5073905;28;19962;-80
2021/10/08 02:46:31;;;;;;;;;;;;;;;7.71;86.86;97468.66;5074249;28;19954;-80
2021/10/08 02:48:56;;;;;;;;;;;;;;;7.66;87.10;97473.56;5073699;28;20305;-81
2021/10/08 02:51:22;;;;;;;;;;;;;;;7.63;87.04;97473.94;5073758;28;19985;-81
2021/10/08 02:53:48;;;;;;;;;;;;;;;7.61;88.03;97462.84;5073569;28;19959;-81
2021/10/08 02:56:14;;;;;;;;;;;;;;;7.59;87.60;97467.44;5073850;28;19992;-81
2021/10/08 02:58:40;;;;;;;;;;;;;;;7.59;87.21;97462.22;5074050;28;20383;-80
2021/10/08 03:01:06;;;;;;;;;;;;;;;7.57;87.17;97463.38;5073756;28;20418;-80
2021/10/08 03:03:32;;;;;;;;;;;;;;;7.55;87.76;97460.94;5074233;28;20439;-79
2021/10/08 03:05:58;;;;;;;;;;;;;;;7.53;86.87;97458.50;5073727;28;20416;-79
2021/10/08 03:08:23;;;;;;;;;;;;;;;7.52;86.78;97461.28;5074119;28;19958;-80
2021/10/08 03:10:49;;;;;;;;;;;;;;;7.49;87.95;97465.03;5073783;28;19958;-79
2021/10/08 03:13:15;;;;;;;;;;;;;;;7.46;88.28;97468.00;5072605;28;19963;-80
2021/10/08 03:15:41;;;;;;;;;;;;;;;7.45;87.92;97460.34;5073457;28;19949;-80
2021/10/08 03:18:07;;;;;;;;;;;;;;;7.44;87.70;97464.75;5073599;28;19968;-80
2021/10/08 03:20:33;;;;;;;;;;;;;;;7.43;88.47;97472.75;5073720;28;20421;-80
2021/10/08 03:22:59;;;;;;;;;;;;;;;7.40;87.43;97473.91;5073630;28;19965;-80
2021/10/08 03:25:25;;;;;;;;;;;;;;;7.40;87.47;97480.94;5073793;28;19957;-80
2021/10/08 03:27:50;;;;;;;;;;;;;;;7.38;87.26;97475.06;5073806;28;19973;-79
2021/10/08 03:30:17;;;;;;;;;;;;;;;7.34;88.12;97472.00;5073981;28;19951;-79
2021/10/08 03:32:43;;;;;;;;;;;;;;;7.30;87.72;97468.91;5073902;28;20021;-79
2021/10/08 03:35:10;;;;;;;;;;;;;;;7.28;87.62;97470.06;5073742;28;19959;-79
2021/10/08 03:40:10;;;;;;;;;;;;;;;7.24;87.73;97469.59;5073689;28;19964;-79
2021/10/08 03:42:36;;;;;;;;;;;;;;;7.22;87.73;97468.13;5073574;28;19961;-79
2021/10/08 03:45:10;;;;;;;;;;;;;;;7.21;88.36;97471.75;5073552;28;19963;-78
2021/10/08 03:48:20;;;;;;;;;;;;;;;7.20;87.73;97468.34;5073390;28;20419;-78
2021/10/08 03:50:27;;;;;;;;;;;;;;;7.17;88.94;97465.25;5058041;28;19954;-78
2021/10/08 03:52:53;;;;;;;;;;;;;;;7.14;88.14;97458.56;5073825;28;20410;-78
2021/10/08 03:55:19;;;;;;;;;;;;;;;7.14;87.78;97462.97;5071951;28;19960;-78
2021/10/08 03:57:45;;;;;;;;;;;;;;;7.11;88.07;97464.94;5073002;28;19973;-78
2021/10/08 04:00:12;;;;;;;;;;;;;;;7.10;89.02;97463.31;5073249;28;19958;-78
2021/10/08 04:02:38;;;;;;;;;;;;;;;7.09;87.65;97464.28;5073538;28;19961;-79
2021/10/08 04:05:04;;;;;;;;;;;;;;;7.08;88.53;97467.88;5075082;28;19956;-78
2021/10/08 04:07:30;;;;;;;;;;;;;;;7.06;88.51;97467.25;5076822;28;19952;-78
2021/10/08 04:09:56;;;;;;;;;;;;;;;7.05;88.63;97470.00;5076985;28;19956;-78
2021/10/08 04:12:21;;;;;;;;;;;;;;;7.02;88.69;97479.00;5076950;28;19968;-79
2021/10/08 04:14:47;;;;;;;;;;;;;;;7.01;89.35;97479.97;5076987;28;20405;-79
2021/10/08 04:17:13;;;;;;;;;;;;;;;7.01;88.66;97476.56;5076934;28;20493;-79
2021/10/08 04:19:39;;;;;;;;;;;;;;;6.98;88.58;97477.72;5076706;28;20397;-79
2021/10/08 04:22:05;;;;;;;;;;;;;;;6.98;89.32;97467.28;5076603;28;19963;-79
2021/10/08 04:24:31;;;;;;;;;;;;;;;6.97;88.42;97475.25;5076636;28;19954;-77
2021/10/08 04:26:56;;;;;;;;;;;;;;;6.94;88.70;97471.22;5076497;28;19951;-79
2021/10/08 04:29:22;;;;;;;;;;;;;;;6.93;89.48;97471.38;5076599;28;19985;-79
2021/10/08 04:31:48;;;;;;;;;;;;;;;6.91;89.68;97479.38;5076528;28;19963;-79
2021/10/08 04:34:14;;;;;;;;;;;;;;;6.88;89.52;97475.28;5076516;28;20413;-79
2021/10/08 04:36:40;;;;;;;;;;;;;;;6.87;89.66;97481.50;5076535;28;20455;-80
2021/10/08 04:39:06;;;;;;;;;;;;;;;6.86;89.78;97479.88;5076471;28;19973;-79
2021/10/08 04:41:32;;;;;;;;;;;;;;;6.83;90.07;97475.00;5076413;28;20435;-79
2021/10/08 04:43:58;;;;;;;;;;;;;;;6.84;89.77;97481.03;5076335;28;19960;-79
2021/10/08 04:46:24;;;;;;;;;;;;;;;6.83;90.14;97472.41;5075342;28;19956;-79
2021/10/08 04:48:50;;;;;;;;;;;;;;;6.82;90.18;97469.94;5076216;28;20310;-80
2021/10/08 04:51:16;;;;;;;;;;;;;;;6.81;90.12;97482.19;5075875;28;20032;-81
2021/10/08 04:53:42;;;;;;;;;;;;;;;6.79;89.78;97483.34;5074966;28;20013;-80
2021/10/08 04:56:08;;;;;;;;;;;;;;;6.78;90.06;97479.09;5076111;28;19957;-80
2021/10/08 04:58:33;;;;;;;;;;;;;;;6.76;89.36;97476.66;5075942;28;20027;-80
2021/10/08 05:00:59;;;;;;;;;;;;;;;6.75;90.21;97476.81;5075938;28;20374;-80
2021/10/08 05:03:25;;;;;;;;;;;;;;;6.74;90.00;97480.41;5076044;28;19966;-80
2021/10/08 05:05:52;;;;;;;;;;;;;;;6.69;90.37;97473.88;5076032;28;19964;-80
2021/10/08 05:08:18;;;;;;;;;;;;;;;6.69;90.72;97473.09;5075749;28;19978;-80
2021/10/08 05:10:44;;;;;;;;;;;;;;;6.66;91.03;97473.44;5076053;28;19962;-80
2021/10/08 05:13:10;;;;;;;;;;;;;;;6.64;88.83;97476.19;5075669;28;20401;-80
2021/10/08 05:15:36;;;;;;;;;;;;;;;6.64;90.43;97478.00;5075180;28;19955;-79
2021/10/08 05:18:02;;;;;;;;;;;;;;;6.62;90.21;97472.94;5075132;28;19977;-80
2021/10/08 05:20:28;;;;;;;;;;;;;;;6.62;90.03;97474.75;5075375;28;20330;-80
2021/10/08 05:22:54;;;;;;;;;;;;;;;6.61;89.61;97473.09;5075584;28;19979;-79
2021/10/08 05:25:20;;;;;;;;;;;;;;;6.60;89.91;97474.09;5075300;28;20406;-79
2021/10/08 05:27:46;;;;;;;;;;;;;;;6.60;90.01;97476.72;5076106;28;19962;-80
2021/10/08 05:30:13;;;;;;;;;;;;;;;6.58;91.05;97476.88;5075339;28;19963;-80
2021/10/08 05:32:39;;;;;;;;;;;;;;;6.58;89.44;97474.25;5075888;28;19951;-80
2021/10/08 05:35:05;;;;;;;;;;;;;;;6.59;90.05;97482.88;5075069;28;19960;-81
2021/10/08 05:37:31;;;;;;;;;;;;;;;6.60;90.51;97489.75;5075712;28;19993;-80
2021/10/08 05:39:57;;;;;;;;;;;;;;;6.59;91.62;97477.66;5075238;28;20561;-80
2021/10/08 05:42:23;;;;;;;;;;;;;;;6.59;90.50;97482.88;5075300;28;20000;-80
2021/10/08 05:44:49;;;;;;;;;;;;;;;6.58;91.13;97479.47;5075278;28;19949;-79
2021/10/08 05:47:14;;;;;;;;;;;;;;;6.57;90.13;97480.44;5075042;28;19979;-82
2021/10/08 05:49:40;;;;;;;;;;;;;;;6.55;90.24;97479.81;5074883;28;19958;-80
2021/10/08 05:52:06;;;;;;;;;;;;;;;6.55;90.37;97489.41;5074555;28;20016;-80
2021/10/08 05:54:32;;;;;;;;;;;;;;;6.55;90.59;97487.63;5075220;28;19953;-82
2021/10/08 05:56:58;;;;;;;;;;;;;;;6.55;91.11;97489.41;5074886;28;19956;-83
2021/10/08 05:59:24;;;;;;;;;;;;;;;6.54;91.43;97483.38;5074740;28;20318;-80
2021/10/08 06:01:50;;;;;;;;;;;;;;;6.54;90.66;97480.78;5074770;28;20411;-80
2021/10/08 06:04:16;;;;;;;;;;;;;;;6.56;91.68;97486.66;5074659;28;20405;-80
2021/10/08 06:06:41;;;;;;;;;;;;;;;6.59;91.91;97488.09;5074671;28;20367;-82
2021/10/08 06:09:07;;;;;;;;;;;;;;;6.69;94.47;97486.94;5074781;28;19963;-79
2021/10/08 06:11:33;;;;;;;;;;;;;;;6.86;93.62;97489.50;5074397;28;20006;-81
2021/10/08 06:13:59;;;;;;;;;;;;;;;7.01;95.42;97497.41;5074520;28;20414;-81
2021/10/08 06:16:25;;;;;;;;;;;;;;;7.13;93.68;97490.84;5074505;28;19963;-80
2021/10/08 06:18:51;;;;;;;;;;;;;;;7.24;92.84;97498.28;5074285;28;19972;-81
2021/10/08 06:21:17;;;;;;;;;;;;;;;7.43;92.92;97498.84;5074692;28;20470;-77
2021/10/08 06:23:43;;;;;;;;;;;;;;;7.69;91.25;97504.56;5074191;28;20006;-78
2021/10/08 06:26:09;;;;;;;;;;;;;;;8.01;90.03;97509.75;5074558;28;20043;-78
2021/10/08 06:28:35;;;;;;;;;;;;;;;8.25;88.89;97511.34;5074376;28;20391;-79
2021/10/08 06:31:01;;;;;;;;;;;;;;;8.45;88.15;97514.31;5074426;28;19952;-79
2021/10/08 06:33:26;;;;;;;;;;;;;;;8.62;86.79;97507.91;5074127;28;19998;-80
2021/10/08 06:35:52;;;;;;;;;;;;;;;8.73;85.86;97517.97;5074692;28;20361;-81
2021/10/08 06:38:18;;;;;;;;;;;;;;;8.83;85.72;97516.88;5074085;28;19978;-79
2021/10/08 06:40:45;;;;;;;;;;;;;;;8.91;85.23;97520.19;5074018;28;20299;-79
2021/10/08 06:43:11;;;;;;;;;;;;;;;8.97;84.71;97518.69;5073992;28;20304;-79
2021/10/08 06:45:37;;;;;;;;;;;;;;;9.08;83.81;97517.41;5074001;28;19952;-79
2021/10/08 06:48:03;;;;;;;;;;;;;;;9.25;84.10;97520.63;5073999;28;20416;-78
2021/10/08 06:50:30;;;;;;;;;;;;;;;9.37;83.17;97521.78;5074107;28;20478;-78
2021/10/08 06:52:56;;;;;;;;;;;;;;;9.50;82.24;97515.91;5073793;28;20488;-80
2021/10/08 06:55:23;;;;;;;;;;;;;;;9.58;80.50;97510.53;5073976;28;19958;-80
2021/10/08 06:57:48;;;;;;;;;;;;;;;9.58;80.26;97507.13;5074162;28;19966;-80
2021/10/08 07:00:14;;;;;;;;;;;;;;;9.57;80.25;97505.50;5073791;28;19964;-80
2021/10/08 07:02:50;;;;;;;;;;;;;;;9.57;80.10;97508.09;5073586;28;20325;-80
2021/10/08 07:05:17;;;;;;;;;;;;;;;9.55;80.72;97510.91;5074260;28;19958;-79
2021/10/08 07:07:43;;;;;;;;;;;;;;;9.53;80.31;97503.25;5073627;28;20333;-80
2021/10/08 07:10:09;;;;;;;;;;;;;;;9.53;80.34;97505.03;5073640;28;19996;-79
2021/10/08 07:12:35;;;;;;;;;;;;;;;9.54;80.29;97504.06;5073727;28;20477;-79
2021/10/08 07:15:04;;;;;;;;;;;;;;;9.54;80.10;97499.63;5073641;28;19954;-79
2021/10/08 07:17:30;;;;;;;;;;;;;;;9.59;80.43;97506.91;5073565;28;19985;-79
2021/10/08 07:19:56;;;;;;;;;;;;;;;9.66;80.23;97502.56;5073611;28;20405;-79
2021/10/08 07:22:22;;;;;;;;;;;;;;;9.75;80.29;97509.31;5073922;28;19961;-79
2021/10/08 07:24:50;;;;;;;;;;;;;;;9.82;79.99;97513.81;5072251;28;19957;-79
2021/10/08 07:27:16;;;;;;;;;;;;;;;9.86;79.91;97515.84;5073530;28;19968;-81
2021/10/08 07:29:42;;;;;;;;;;;;;;;9.95;79.93;97513.94;5072512;28;20047;-81
2021/10/08 07:32:08;;;;;;;;;;;;;;;10.01;79.58;97512.38;5073224;28;19958;-81
2021/10/08 07:34:34;;;;;;;;;;;;;;;10.06;79.41;97513.44;5072637;28;19963;-79
2021/10/08 07:37:00;;;;;;;;;;;;;;;10.09;79.38;97512.25;5073453;28;20366;-79
2021/10/08 07:39:26;;;;;;;;;;;;;;;10.14;79.50;97520.34;5074058;28;20008;-80
2021/10/08 07:41:52;;;;;;;;;;;;;;;10.10;79.21;97513.84;5077241;28;19964;-78
2021/10/08 07:44:18;;;;;;;;;;;;;;;10.10;79.68;97511.22;5077711;28;20006;-78
2021/10/08 07:46:44;;;;;;;;;;;;;;;10.19;79.54;97515.38;5077479;28;19979;-78
2021/10/08 07:49:10;;;;;;;;;;;;;;;10.27;79.26;97511.81;5077337;28;20401;-79
2021/10/08 07:51:35;;;;;;;;;;;;;;;10.36;79.41;97513.31;5077329;28;20022;-79
2021/10/08 07:54:03;;;;;;;;;;;;;;;10.41;79.23;97502.25;5077187;28;20057;-78
2021/10/08 07:56:29;;;;;;;;;;;;;;;10.49;79.42;97505.53;5077174;28;19973;-79
2021/10/08 07:58:55;;;;;;;;;;;;;;;10.59;79.17;97512.28;5062117;28;19964;-79
2021/10/08 08:01:20;;;;;;;;;;;;;;;10.66;78.98;97503.44;5077096;28;19964;-79
2021/10/08 08:03:46;;;;;;;;;;;;;;;10.73;78.73;97506.91;5076932;28;19958;-78
2021/10/08 08:06:12;;;;;;;;;;;;;;;10.82;78.54;97507.56;5076850;28;20001;-78
2021/10/08 08:08:38;;;;;;;;;;;;;;;10.90;78.39;97506.63;5076962;28;19956;-78
2021/10/08 08:11:04;;;;;;;;;;;;;;;10.96;78.09;97503.19;5076994;28;19954;-78
2021/10/08 08:13:31;;;;;;;;;;;;;;;11.02;77.84;97504.25;5076891;28;20347;-79
2021/10/08 08:15:57;;;;;;;;;;;;;;;11.10;78.01;97497.00;5076832;28;19964;-78
2021/10/08 08:18:23;;;;;;;;;;;;;;;11.20;78.16;97498.47;5076736;28;19972;-78
2021/10/08 08:20:49;;;;;;;;;;;;;;;11.28;77.83;97498.31;5077204;28;20047;-78
2021/10/08 08:23:15;;;;;;;;;;;;;;;11.35;77.99;97502.56;5076731;28;20487;-78
2021/10/08 08:25:41;;;;;;;;;;;;;;;11.45;78.12;97496.16;5076549;28;20444;-79
2021/10/08 08:28:07;;;;;;;;;;;;;;;11.55;80.21;97489.50;5076353;28;20404;-77
2021/10/08 08:30:38;;;;;;;;;;;;;;;11.70;77.62;97489.34;5076598;28;19964;-77
2021/10/08 08:33:04;;;;;;;;;;;;;;;11.78;77.67;97494.41;5076640;28;19960;-77
2021/10/08 08:35:29;;;;;;;;;;;;;;;11.81;77.82;97493.19;5076380;28;19968;-77
2021/10/08 08:37:55;;;;;;;;;;;;;;;11.86;77.26;97493.41;5076249;28;20422;-77
2021/10/08 08:40:22;;;;;;;;;;;;;;;11.92;77.29;97497.88;5076201;28;19963;-78
2021/10/08 08:42:51;;;;;;;;;;;;;;;12.01;77.88;97502.97;5076382;28;19959;-78
2021/10/08 08:45:17;;;;;;;;;;;;;;;12.03;77.61;97496.47;5076263;28;19957;-78
2021/10/08 08:47:55;;;;;;;;;;;;;;;12.14;77.46;97482.75;5076166;28;19990;-77
2021/10/08 08:50:21;;;;;;;;;;;;;;;12.23;77.52;97491.25;5075966;28;20324;-78
2021/10/08 08:52:47;;;;;;;;;;;;;;;12.28;77.21;97488.00;5074927;28;19990;-77
2021/10/08 08:55:13;;;;;;;;;;;;;;;12.31;77.04;97490.25;5076430;28;19966;-77
2021/10/08 08:57:39;;;;;;;;;;;;;;;12.34;77.08;97485.38;5075943;28;19969;-76
2021/10/08 09:00:07;;;;;;;;;;;;;;;12.36;77.40;97483.34;5076144;28;19955;-77
2021/10/08 09:02:34;;;;;;;;;;;;;;;12.35;77.19;97483.56;5076143;28;19958;-77
2021/10/08 09:05:00;;;;;;;;;;;;;;;12.39;77.73;97484.78;5076016;28;19967;-76
2021/10/08 09:07:33;;;;;;;;;;;;;;;12.47;77.83;97494.25;5075720;28;20426;-76
2021/10/08 09:10:12;;;;;;;;;;;;;;;12.57;77.69;97484.94;5075962;28;19953;-76
2021/10/08 09:12:39;;;;;;;;;;;;;;;12.71;77.83;97482.31;5074123;28;19961;-76
2021/10/08 09:15:07;;;;;;;;;;;;;;;12.81;77.31;97480.06;5075498;28;19966;-76
2021/10/08 09:17:32;;;;;;;;;;;;;;;12.93;77.25;97485.47;5075584;28;19957;-76
2021/10/08 09:20:02;;;;;;;;;;;;;;;12.95;75.78;97481.59;5075468;28;20490;-76
2021/10/08 09:22:29;;;;;;;;;;;;;;;12.94;76.01;97479.22;5075760;28;20352;-76
2021/10/08 09:25:06;;;;;;;;;;;;;;;12.94;75.38;97468.69;5075354;28;19950;-76
2021/10/08 09:27:34;;;;;;;;;;;;;;;12.88;75.72;97472.94;5062751;28;20402;-76
2021/10/08 09:30:00;;;;;;;;;;;;;;;12.89;75.25;97471.09;5075220;28;19957;-76
2021/10/08 09:32:26;;;;;;;;;;;;;;;12.85;74.32;97475.16;5075594;28;19974;-76
2021/10/08 09:35:06;;;;;;;;;;;;;;;12.90;75.69;97470.91;5075698;28;19971;-76
2021/10/08 09:37:32;;;;;;;;;;;;;;;13.00;75.86;97473.13;5064840;28;19956;-76
2021/10/08 09:39:58;;;;;;;;;;;;;;;13.10;75.34;97473.47;5075240;28;19974;-76
2021/10/08 09:42:31;;;;;;;;;;;;;;;13.25;76.40;97475.84;5075106;28;19967;-76
2021/10/08 09:44:57;;;;;;;;;;;;;;;13.34;73.67;97471.19;5075243;28;19952;-76
2021/10/08 09:47:24;;;;;;;;;;;;;;;13.46;74.75;97469.50;5075297;28;19968;-76
2021/10/08 09:49:51;;;;;;;;;;;;;;;13.53;74.46;97472.09;5074970;28;20440;-75
2021/10/08 09:52:27;;;;;;;;;;;;;;;13.51;73.84;97477.56;5074913;28;19982;-76
2021/10/08 09:54:54;;;;;;;;;;;;;;;13.48;72.63;97477.19;5075507;28;20404;-76
2021/10/08 09:57:21;;;;;;;;;;;;;;;13.49;74.34;97473.53;5074699;28;19956;-76
2021/10/08 09:59:49;;;;;;;;;;;;;;;13.45;71.40;97473.16;5074569;28;19986;-76
2021/10/08 10:02:15;;;;;;;;;;;;;;;13.50;74.48;97483.03;5074596;28;20324;-76
2021/10/08 10:04:45;;;;;;;;;;;;;;;13.52;74.42;97484.47;5074728;28;19968;-76
2021/10/08 10:07:15;;;;;;;;;;;;;;;13.54;75.07;97484.25;5074662;28;20435;-75
2021/10/08 10:09:41;;;;;;;;;;;;;;;13.55;74.73;97477.97;5074549;28;20465;-76
2021/10/08 10:12:07;;;;;;;;;;;;;;;13.49;73.28;97479.59;5074320;28;19974;-75
2021/10/08 10:14:33;;;;;;;;;;;;;;;13.41;73.58;97477.22;5073377;28;19992;-75
2021/10/08 10:16:59;;;;;;;;;;;;;;;13.36;74.47;97482.31;5074489;28;19992;-76
2021/10/08 10:19:25;;;;;;;;;;;;;;;13.30;74.72;97478.69;5074302;28;19996;-76
2021/10/08 10:21:53;;;;;;;;;;;;;;;13.29;75.31;97478.88;5074888;28;20029;-76
2021/10/08 10:24:19;;;;;;;;;;;;;;;13.30;74.22;97472.63;5074375;28;19962;-75
2021/10/08 10:26:45;;;;;;;;;;;;;;;13.33;74.66;97475.66;5074345;28;19959;-75
2021/10/08 10:29:12;;;;;;;;;;;;;;;13.37;75.56;97476.00;5074083;28;19967;-76
2021/10/08 10:31:37;;;;;;;;;;;;;;;13.39;74.45;97464.25;5074216;28;20023;-75
2021/10/08 10:34:04;;;;;;;;;;;;;;;13.39;74.57;97474.78;5074470;28;20329;-76
2021/10/08 10:36:31;;;;;;;;;;;;;;;13.39;74.18;97468.72;5074213;28;20930;-76
2021/10/08 10:39:15;;;;;;;;;;;;;;;13.39;74.42;97466.06;5074021;28;19973;-76
2021/10/08 10:41:46;;;;;;;;;;;;;;;13.38;74.77;97465.28;5072679;28;19956;-76
2021/10/08 10:44:31;;;;;;;;;;;;;;;13.40;74.11;97462.44;5073978;28;19954;-76
2021/10/08 10:47:19;;;;;;;;;;;;;;;13.48;74.62;97462.19;5074237;28;20354;-76
2021/10/08 10:49:57;;;;;;;;;;;;;;;13.51;73.66;97456.50;5062942;28;19969;-76
2021/10/08 10:52:24;;;;;;;;;;;;;;;13.45;73.52;97457.34;5073947;28;19996;-76
2021/10/08 10:54:51;;;;;;;;;;;;;;;13.43;73.51;97464.63;5060595;28;20366;-75
2021/10/08 10:57:20;;;;;;;;;;;;;;;13.39;72.96;97466.06;5073753;28;19959;-76
2021/10/08 10:59:46;;;;;;;;;;;;;;;13.38;74.27;97464.47;5073646;28;19973;-76
2021/10/08 11:02:14;;;;;;;;;;;;;;;13.36;73.96;97467.31;5073591;28;19965;-76
2021/10/08 11:04:48;;;;;;;;;;;;;;;13.38;74.56;97460.00;5073976;28;19960;-76
2021/10/08 11:07:16;;;;;;;;;;;;;;;13.38;74.11;97454.75;5073523;28;19973;-77
2021/10/08 11:09:43;;;;;;;;;;;;;;;13.42;74.55;97462.22;5073726;28;19967;-77
2021/10/08 11:12:28;;;;;;;;;;;;;;;13.43;74.58;97456.72;5073561;28;20326;-76
2021/10/08 11:15:23;;;;;;;;;;;;;;;13.44;74.40;97461.00;5072491;28;19971;-77
2021/10/08 11:17:52;;;;;;;;;;;;;;;13.44;73.97;97454.91;5068042;28;19956;-76
2021/10/08 11:20:31;;;;;;;;;;;;;;;13.42;74.26;97459.56;5073638;28;19986;-76
2021/10/08 11:23:01;;;;;;;;;;;;;;;13.42;74.69;97460.41;5073452;28;19955;-76
2021/10/08 11:25:28;;;;;;;;;;;;;;;13.42;74.36;97455.13;5073353;28;19958;-76
2021/10/08 11:27:54;;;;;;;;;;;;;;;13.45;73.83;97452.06;5073815;28;19956;-76
2021/10/08 11:30:23;;;;;;;;;;;;;;;13.47;74.23;97447.38;5073562;28;19959;-76
2021/10/08 11:32:50;;;;;;;;;;;;;;;13.47;73.88;97451.84;5073456;28;19954;-77
2021/10/08 11:35:19;;;;;;;;;;;;;;;13.46;72.50;97451.06;5073207;28;19959;-77
2021/10/08 11:37:46;;;;;;;;;;;;;;;13.47;74.59;97443.94;5073526;28;19957;-76
2021/10/08 11:40:15;;;;;;;;;;;;;;;13.52;74.77;97450.22;5073365;28;19978;-76
2021/10/08 11:42:54;;;;;;;;;;;;;;;13.59;74.42;97448.34;5073261;28;20338;-76
2021/10/08 11:45:44;;;;;;;;;;;;;;;13.72;73.50;97444.00;5073431;28;19956;-76
2021/10/08 11:53:06;;;;;;;;;;;;;;;14.26;73.23;97439.09;5073374;28;19980;-76
2021/10/08 11:55:38;;;;;;;;;;;;;;;14.28;71.73;97427.34;5073527;28;19957;-77
2021/10/08 11:58:07;;;;;;;;;;;;;;;14.27;71.30;97420.44;5073212;28;20333;-77
2021/10/08 12:00:34;;;;;;;;;;;;;;;14.31;71.87;97426.88;5072657;28;20339;-77
2021/10/08 12:03:02;;;;;;;;;;;;;;;14.18;70.95;97412.00;5072984;28;19961;-76
2021/10/08 12:05:40;;;;;;;;;;;;;;;14.18;71.81;97416.47;5073457;28;20336;-76
2021/10/08 12:08:06;;;;;;;;;;;;;;;14.24;72.14;97423.50;5065241;28;20428;-76
2021/10/08 12:10:32;;;;;;;;;;;;;;;14.27;71.45;97409.06;5062045;28;20061;-76
2021/10/08 12:12:59;;;;;;;;;;;;;;;14.32;71.86;97410.06;5072898;28;19971;-77
2021/10/08 12:15:26;;;;;;;;;;;;;;;14.32;71.45;97409.22;5073503;28;19966;-76
2021/10/08 12:17:54;;;;;;;;;;;;;;;14.28;71.81;97403.59;5073219;28;19980;-76
2021/10/08 12:20:21;;;;;;;;;;;;;;;14.20;71.71;97409.13;5072804;28;19979;-76
2021/10/08 12:22:47;;;;;;;;;;;;;;;14.13;72.07;97413.66;5072835;28;19967;-76
2021/10/08 12:25:15;;;;;;;;;;;;;;;14.05;71.94;97408.66;5073431;28;19976;-75
2021/10/08 12:27:43;;;;;;;;;;;;;;;14.00;71.73;97412.75;5076346;28;19964;-76
2021/10/08 12:30:10;;;;;;;;;;;;;;;14.00;71.89;97410.09;5076570;28;19965;-75
2021/10/08 12:32:37;;;;;;;;;;;;;;;13.99;71.73;97405.88;5076608;28;19970;-75
2021/10/08 12:35:13;;;;;;;;;;;;;;;14.05;73.13;97416.56;5076483;28;19955;-76
2021/10/08 12:37:39;;;;;;;;;;;;;;;14.08;72.85;97414.31;5076716;28;20322;-76
2021/10/08 12:40:11;;;;;;;;;;;;;;;14.16;73.43;97410.59;5076007;28;20028;-77
2021/10/08 12:42:39;;;;;;;;;;;;;;;14.18;73.02;97412.00;5076507;28;19965;-76
2021/10/08 12:45:19;;;;;;;;;;;;;;;14.20;72.71;97398.59;5076573;28;19958;-76
2021/10/08 12:47:45;;;;;;;;;;;;;;;14.20;72.65;97406.50;5076316;28;19956;-76
2021/10/08 12:50:16;;;;;;;;;;;;;;;14.19;71.94;97408.34;5076538;28;19963;-76
2021/10/08 12:52:46;;;;;;;;;;;;;;;14.17;72.40;97409.56;5075884;28;19994;-76
2021/10/08 12:55:17;;;;;;;;;;;;;;;14.14;72.68;97410.81;5076307;28;19961;-76
2021/10/08 12:58:04;;;;;;;;;;;;;;;14.15;72.97;97416.88;5076196;28;19965;-76
2021/10/08 13:00:34;;;;;;;;;;;;;;;14.13;72.70;97409.22;5064298;28;19976;-76